• Join FlightAware (Why Join?)
  • Login
  • US Flag 
 
05:04AM EST


 

Airport Tracker/Info


-or-


 

Live Flight TrackerFlight Track Log ✈ AAL2007 ✈ 19-Jun-2013 ✈ KORD - KAUS

Flight Track Log - Related Links

Times and Time Zones

All times are in EDT time to prevent confusion due to time zone crossing. See the AAL2007 flight status page for this flight to view local times or setup timezone preferences in your user account.

Time Position Orientation Groundspeed Altitude Reporting Facility
EDT Latitude Longitude Course Direction KTS MPH feet Rate Location/Type
06:12PM 41.9833 -87.8167 194° South 209 241 2,700  Level Chicago TRACON
06:13PM 41.7054 -88.1832 201° Southwest  Level Estimated
06:13PM 41.9097 -87.7606 150° Southeast 266 306 4,700  Level Chicago Center
06:14PM 41.6132 -88.2748 197° South  Level Estimated
06:14PM 41.8361 -87.7525 175° South 269 310 5,000  Level Chicago Center
06:15PM 41.5209 -88.3661 194° South  Level Estimated
06:15PM 41.7469 -87.7408 174° South 268 308 5,400  Level Chicago Center
06:16PM 41.4286 -88.4573 207° Southwest  Level Estimated
06:16PM 41.6739 -87.7556 189° South 283 326 8,200  Level Chicago Center
06:17PM 41.3400 -88.5443 194° South  Level Estimated
06:17PM 41.6472 -87.8511 250° West 277 319 11,100  Level Chicago Center
06:18PM 41.5953 -87.9339 230° Southwest 298 343 13,400 1,620 Climbing Chicago Center
06:19PM 41.5314 -88.0150 224° Southwest 315 362 14,500 1,860 Climbing Chicago Center
06:20PM 41.4433 -88.1300 224° Southwest 385 443 17,300 2,220 Climbing Chicago Center
06:21PM 41.3556 -88.2039 212° Southwest 398 458 19,100 1,620 Climbing Chicago Center
06:22PM 41.2508 -88.2506 199° South 402 463 20,700 1,860 Climbing Chicago Center
06:23PM 41.1200 -88.3086 198° South 415 478 23,000 1,740 Climbing Chicago Center
06:25PM 41.0069 -88.3600 199° South 427 491 24,300 1,560 Climbing Chicago Center
06:26PM 40.8925 -88.4103 198° South 435 501 26,300 1,680 Climbing Chicago Center
06:27PM 40.7919 -88.4908 211° Southwest 431 496 27,800 1,380 Climbing Chicago Center
06:28PM 40.7039 -88.5983 223° Southwest 431 496 29,200 960 Climbing Chicago Center
06:29PM 40.5906 -88.7142 218° Southwest 432 497 29,900 360 Climbing Chicago Center
06:30PM 40.4964 -88.8142 219° Southwest 437 503 30,000  Climbing Chicago Center
06:31PM 40.3969 -88.9164 218° Southwest 440 506 30,000  Level Chicago Center
06:32PM 40.3011 -89.0161 218° Southwest 437 503 30,000 60 Level Chicago Center
06:33PM 40.2056 -89.1144 218° Southwest 436 502 30,200 480 Climbing Chicago Center
06:34PM 40.1097 -89.2139 218° Southwest 436 502 31,100 900 Climbing Chicago Center
06:35PM 40.0311 -89.2961 219° Southwest 440 506 31,800 480 Climbing Kansas City Center
06:36PM 39.9342 -89.3975 219° Southwest 443 510 32,000 60 Climbing Kansas City Center
06:37PM 39.8383 -89.4969 219° Southwest 441 507 32,000 -60 Level Kansas City Center
06:38PM 39.7456 -89.5928 218° Southwest 432 497 31,900 -60 Descending Kansas City Center
06:39PM 39.6497 -89.6908 218° Southwest 424 488 31,900  Level Kansas City Center
06:40PM 39.5564 -89.7844 218° Southwest 425 489 32,000  Climbing Kansas City Center
06:41PM 39.4442 -89.8978 218° Southwest 426 490 32,000  Level Kansas City Center
06:42PM 39.3503 -89.9925 218° Southwest 428 493 32,000 -60 Level Kansas City Center
06:43PM 39.2583 -90.0861 218° Southwest 425 489 31,900  Descending Kansas City Center
06:44PM 39.1653 -90.1797 218° Southwest 425 489 32,000  Climbing Kansas City Center
06:45PM 39.0711 -90.2733 218° Southwest 429 494 32,000  Level Kansas City Center
06:46PM 38.9614 -90.3847 218° Southwest 425 489 32,000 120 Level Kansas City Center
06:47PM 38.8775 -90.4678 218° Southwest 422 486 32,300 480 Climbing Kansas City Center
06:48PM 38.7722 -90.5853 221° Southwest 418 481 33,000 540 Climbing Kansas City Center
06:49PM 38.6856 -90.6839 222° Southwest 413 475 33,500 420 Climbing Kansas City Center
06:50PM 38.5956 -90.7883 222° Southwest 420 483 33,900 240 Climbing Kansas City Center
06:51PM 38.5100 -90.8856 222° Southwest 417 480 34,000  Climbing Kansas City Center
06:52PM 38.4219 -90.9892 223° Southwest 425 489 34,000  Level Kansas City Center
06:53PM 38.3344 -91.0886 222° Southwest 426 490 34,000  Level Kansas City Center
06:54PM 38.2467 -91.1875 222° Southwest 424 488 34,000  Level Kansas City Center
06:55PM 38.1403 -91.3058 221° Southwest 422 486 34,000  Level Kansas City Center
06:56PM 38.0542 -91.4036 222° Southwest 417 480 34,000  Level Kansas City Center
06:57PM 37.9672 -91.5042 222° Southwest 419 482 34,000 -60 Level Kansas City Center
06:58PM 37.8764 -91.6042 221° Southwest 426 490 33,900  Descending Kansas City Center
06:59PM 37.7894 -91.7022 222° Southwest 420 483 34,000  Climbing Kansas City Center
07:00PM 37.7022 -91.7997 222° Southwest 417 480 34,000  Level Kansas City Center
07:01PM 37.6136 -91.8986 221° Southwest 420 483 34,000  Level Kansas City Center
07:02PM 37.5261 -91.9956 221° Southwest 417 480 34,000 -60 Level Kansas City Center
07:04PM 37.4219 -92.1103 221° Southwest 413 475 33,900  Descending Kansas City Center
07:05PM 37.3372 -92.2028 221° Southwest 406 467 34,000  Climbing Kansas City Center
07:06PM 37.2519 -92.2947 221° Southwest 403 464 34,000 -60 Level Kansas City Center
07:07PM 37.1658 -92.3892 221° Southwest 405 466 33,900  Descending Kansas City Center
07:08PM 37.0775 -92.4856 221° Southwest 413 475 34,000  Climbing Kansas City Center
07:09PM 36.9906 -92.5811 221° Southwest 415 478 34,000 -60 Level Kansas City Center
07:10PM 36.9028 -92.6739 220° Southwest 414 476 33,900 -60 Descending Kansas City Center
07:11PM 36.7967 -92.7889 221° Southwest 418 481 33,900  Level Kansas City Center
07:12PM 36.7078 -92.8819 220° Southwest 418 481 34,000  Climbing Kansas City Center
07:13PM 36.6208 -92.9775 221° Southwest 416 479 34,000 -60 Level Kansas City Center
07:14PM 36.5386 -93.0650 221° Southwest 417 480 33,900  Descending Kansas City Center
07:15PM 36.4522 -93.1589 221° Southwest 415 478 34,000  Climbing Kansas City Center
07:16PM 36.3450 -93.2731 221° Southwest 422 486 34,000  Level Kansas City Center
07:17PM 36.2567 -93.3667 221° Southwest 421 484 34,000  Level Kansas City Center
07:18PM 36.1692 -93.4589 220° Southwest 417 480 34,000  Level Kansas City Center
07:19PM 36.0819 -93.5511 221° Southwest 415 478 34,000 -60 Level Kansas City Center
07:20PM 35.9953 -93.6428 221° Southwest 414 476 33,900  Descending Kansas City Center
07:21PM 35.8850 -93.7569 220° Southwest 420 483 34,000  Climbing Memphis Center
07:22PM 35.7969 -93.8506 221° Southwest 420 483 34,000  Level Memphis Center
07:23PM 35.7067 -93.9439 220° Southwest 420 483 34,000  Level Memphis Center
07:24PM 35.6186 -94.0344 220° Southwest 420 483 34,000  Level Memphis Center
07:25PM 35.5283 -94.1250 219° Southwest 420 483 34,000  Level Memphis Center
07:26PM 35.4400 -94.2178 221° Southwest 425 489 34,000  Level Memphis Center
07:27PM 35.3475 -94.3053 218° Southwest 425 489 34,000  Level Memphis Center
07:28PM 35.2450 -94.3792 210° Southwest 430 495 34,000  Level Memphis Center
07:29PM 35.1422 -94.4581 212° Southwest 436 502 34,000  Level Memphis Center
07:31PM 34.9556 -94.6017 212° Southwest 424 488 34,000  Level Fort Worth Center
07:32PM 34.8531 -94.6833 213° Southwest 424 488 34,000  Level Fort Worth Center
07:33PM 34.7503 -94.7600 212° Southwest 429 494 34,000  Level Fort Worth Center
07:34PM 34.6478 -94.8364 212° Southwest 434 499 34,000 -60 Level Fort Worth Center
07:35PM 34.5428 -94.9153 212° Southwest 434 499 33,900  Descending Fort Worth Center
07:36PM 34.4381 -94.9936 212° Southwest 441 507 34,000  Climbing Fort Worth Center
07:37PM 34.3331 -95.0747 213° Southwest 446 513 34,000  Level Fort Worth Center
07:38PM 34.2322 -95.1478 211° Southwest 446 513 34,000  Level Fort Worth Center
07:39PM 34.1272 -95.2256 212° Southwest 446 513 34,000 -60 Level Fort Worth Center
07:40PM 34.0242 -95.3033 212° Southwest 446 513 33,900  Descending Fort Worth Center
07:41PM 33.9086 -95.3889 212° Southwest 446 513 34,000  Climbing Fort Worth Center
07:42PM 33.8014 -95.4664 211° Southwest 446 513 34,000 -60 Level Fort Worth Center
07:43PM 33.6983 -95.5408 211° Southwest 446 513 33,900  Descending Fort Worth Center
07:44PM 33.6117 -95.6078 213° Southwest 446 513 34,000  Climbing Fort Worth Center
07:45PM 33.5042 -95.6822 210° Southwest 441 507 33,900  Descending Fort Worth Center
07:46PM 33.3986 -95.7564 210° Southwest 441 507 34,000  Climbing Fort Worth Center
07:47PM 33.2953 -95.8303 211° Southwest 441 507 33,900 -60 Descending Fort Worth Center
07:48PM 33.1875 -95.9067 211° Southwest 441 507 33,900  Level Fort Worth Center
07:49PM 33.0861 -95.9853 213° Southwest 441 507 33,900  Level Fort Worth Center
07:50PM 32.9806 -96.0589 210° Southwest 441 507 34,000  Climbing Fort Worth Center
07:51PM 32.8769 -96.1319 211° Southwest 441 507 34,000 -60 Level Fort Worth Center
07:52PM 32.7714 -96.2078 211° Southwest 441 507 33,900 -60 Descending Fort Worth Center
07:53PM 32.6697 -96.2806 211° Southwest 441 507 33,900  Level Fort Worth Center
07:54PM 32.5639 -96.3508 209° Southwest 441 507 33,900  Level Fort Worth Center
07:55PM 32.4558 -96.4089 204° Southwest 435 501 33,900  Level Fort Worth Center
07:56PM 32.3414 -96.4617 201° Southwest 435 501 34,000  Climbing Fort Worth Center
07:57PM 32.2269 -96.5144 201° Southwest 435 501 33,900 -60 Descending Fort Worth Center
07:58PM 32.1103 -96.5647 200° South 441 507 33,900  Level Fort Worth Center
07:59PM 31.9936 -96.6197 202° Southwest 447 514 33,900  Level Fort Worth Center
08:00PM 31.8833 -96.6719 202° Southwest 447 514 34,000 -60 Climbing Fort Worth Center
08:01PM 31.7753 -96.7486 211° Southwest 447 514 33,800 -1,200 Descending Fort Worth Center
08:02PM 31.6672 -96.8397 216° Southwest 447 514 31,700 -2,220 Descending Fort Worth Center
08:03PM 31.5631 -96.9258 215° Southwest 454 522 29,400 -2,640 Descending Fort Worth Center
08:04PM 31.4247 -97.0361 214° Southwest 465 535 25,700 -2,700 Descending Houston Center
08:05PM 31.3208 -97.1203 215° Southwest 458 527 23,200 -3,000 Descending Houston Center
08:06PM 31.2192 -97.1994 214° Southwest 442 509 19,600 -2,940 Descending Houston Center
08:08PM 31.1097 -97.2481 201° Southwest 422 486 17,200 -2,220 Descending Houston Center
08:09PM 31.0025 -97.2911 199° South 405 466 15,100 -2,040 Descending Houston Center
08:10PM 30.8944 -97.3469 204° Southwest 388 447 13,000 -1,320 Descending Houston Center
08:11PM 30.8008 -97.3892 201° Southwest 364 419 12,400 -780 Descending Houston Center
08:12PM 30.7267 -97.4506 215° Southwest 329 379 11,400 -1,260 Descending Houston Center
08:13PM 30.6608 -97.5131 219° Southwest 309 356 9,900 -1,440 Descending Houston Center
08:14PM 30.5875 -97.5511 204° Southwest 291 335 8,500 -1,560 Descending Houston Center
08:15PM 30.5033 -97.5975 205° Southwest 284 327 6,700 -1,620 Descending Houston Center
08:16PM 30.4336 -97.6369 206° Southwest 279 321 5,200 -1,500 Descending Houston Center